Accueil
METAR-TAF:

METAR-TAF

Aéroports :

Aéroport de Lille-Lesquin

Lille, France

latitude: 50-34N, longitude: 003-06E, altitude: 48 m

Observation

Le bulletin a été fait il y a 30 minutes, à 19:30 UTC
Vent 6 kt de ouest
Température 20°C
Humidité 49%
Pression 1016 hPa
Visibilité 10 km ou plus
pas de nuages en-dessous de 1500 mètres et pas de cumulonimbus.

METAR: LFQQ 041930Z AUTO 28006KT CAVOK 20/09 Q1016 NOSIG

Heure: 22:00 (20:00 UTC)

Prévision

Le bulletin a été fait il y a 3 heures et 0 minutes, à 17:00 UTC
Prévision valable du 04 à 18 UTC au 05 à 24 UTC
Vent 10 kt de ouest/nord-ouest
Visibilité 10 km ou plus
pas de nuages en-dessous de 1500 mètres et pas de cumulonimbus.
Evoluant progressivement
du 05 à 09 UTC au 05 à 11 UTC
Vent 10 kt de sud/sud-ouest
Evoluant progressivement
du 05 à 19 UTC au 05 à 22 UTC
Vent 2 kt de direction variable

TAF: LFQQ 041700Z 0418/0524 30010KT CAVOK BECMG 0509/0511 20010KT BECMG 0519/0522 VRB02KT

Observations et prévisions météorologiques de plus de 4000 aéroports (messages METAR et TAF).

Les stations disponibles sont représentées par des disques jaunes et rouges sur la carte.

Passer la souris dessus pour voir le nom de la station.

Cliquer dessus pour voir les observations et prévisions météorologiques.

Pour changer de carte: cliquez sur les boutons verts avec une croix noire pour zoomer, sur le bouton vert avec un tiret pour effectuer un zoom arrière, ou sur les flèches vertes pour les cartes adjacentes.


METAR-TAF: